createdAt,value
2023-01-20T00:02:25.027Z,32.40
2023-01-20T00:04:51.819Z,32.70
2023-01-20T00:07:18.887Z,37.40
2023-01-20T00:09:45.629Z,30.80
2023-01-20T00:12:12.453Z,33.10
2023-01-20T00:14:44.213Z,31.60
2023-01-20T00:17:10.961Z,30.70
2023-01-20T00:19:56.530Z,27.40
2023-01-20T00:22:23.420Z,29.10
2023-01-20T00:24:50.285Z,31.70
2023-01-20T00:27:18.449Z,25.70
2023-01-20T00:29:47.174Z,26.30
2023-01-20T00:32:14.227Z,25.80
2023-01-20T00:34:40.962Z,26.60
2023-01-20T00:37:07.636Z,25.20
2023-01-20T00:39:34.337Z,27.90
2023-01-20T00:42:01.339Z,27.60
2023-01-20T00:44:28.293Z,25.60
2023-01-20T00:46:54.987Z,25.50
2023-01-20T00:49:22.120Z,25.70
2023-01-20T00:51:48.769Z,28.10
2023-01-20T00:54:15.449Z,26.50
2023-01-20T00:56:42.339Z,27.40
2023-01-20T00:59:09.843Z,29.70
2023-01-20T01:01:36.813Z,26.80
2023-01-20T01:04:22.526Z,27.80
2023-01-20T01:06:50.207Z,30.00
2023-01-20T01:09:35.874Z,25.00
2023-01-20T01:12:03.139Z,26.70
2023-01-20T01:14:31.629Z,29.70
2023-01-20T01:16:58.483Z,23.40
2023-01-20T01:19:25.260Z,29.20
2023-01-20T01:21:52.030Z,28.70
2023-01-20T01:24:18.876Z,24.00
2023-01-20T01:26:45.614Z,27.60
2023-01-20T01:29:12.557Z,31.00
2023-01-20T01:31:39.833Z,25.60
2023-01-20T01:34:06.570Z,28.80
2023-01-20T01:36:33.233Z,30.40
2023-01-20T01:39:00.348Z,30.20
2023-01-20T01:41:27.088Z,28.30
2023-01-20T01:44:10.206Z,27.00
2023-01-20T01:46:38.683Z,25.30
2023-01-20T01:49:30.970Z,25.40
2023-01-20T01:52:00.976Z,26.10
2023-01-20T01:54:33.907Z,25.50
2023-01-20T01:57:00.772Z,27.70
2023-01-20T01:59:27.644Z,26.60
2023-01-20T02:01:55.282Z,27.30
2023-01-20T02:04:24.900Z,25.20
2023-01-20T02:06:56.332Z,23.00
2023-01-20T02:09:26.482Z,25.60
2023-01-20T02:11:57.631Z,25.00
2023-01-20T02:14:30.370Z,26.90
2023-01-20T02:17:25.143Z,27.50
2023-01-20T02:20:30.111Z,23.40
2023-01-20T02:23:17.226Z,26.00
2023-01-20T02:26:38.193Z,26.60
2023-01-20T02:29:10.915Z,27.30
2023-01-20T02:31:59.557Z,27.60
2023-01-20T02:34:41.059Z,26.70
2023-01-20T02:37:29.596Z,29.70
2023-01-20T02:40:40.583Z,38.20
2023-01-20T02:43:15.356Z,29.00
2023-01-20T02:45:56.920Z,25.80
2023-01-20T02:48:46.682Z,26.50
2023-01-20T02:51:24.085Z,28.40
2023-01-20T02:54:01.454Z,24.50
2023-01-20T02:56:29.750Z,26.80
2023-01-20T02:59:07.619Z,28.40
2023-01-20T03:01:50.266Z,25.50
2023-01-20T03:04:22.106Z,24.80
2023-01-20T03:06:51.823Z,25.10
2023-01-20T03:09:25.517Z,31.00
2023-01-20T03:11:58.468Z,27.30
2023-01-20T03:14:26.189Z,27.00
2023-01-20T03:16:55.556Z,26.90
2023-01-20T03:19:22.424Z,24.90
2023-01-20T03:21:49.454Z,25.00
2023-01-20T03:24:37.961Z,30.90
2023-01-20T03:27:05.469Z,30.50
2023-01-20T03:29:32.170Z,29.70
2023-01-20T03:32:01.711Z,25.50
2023-01-20T03:34:32.972Z,26.00
2023-01-20T03:37:00.887Z,24.30
2023-01-20T03:39:28.377Z,27.80
2023-01-20T03:42:11.713Z,28.50
2023-01-20T03:45:05.303Z,29.60
2023-01-20T03:47:48.399Z,30.70
2023-01-20T03:50:28.696Z,28.10
2023-01-20T03:53:18.803Z,28.90
2023-01-20T03:55:56.239Z,31.30
2023-01-20T03:58:30.716Z,30.20
2023-01-20T04:01:00.257Z,30.40
2023-01-20T04:03:33.269Z,29.60
2023-01-20T04:06:03.705Z,31.30
2023-01-20T04:08:34.830Z,28.90
2023-01-20T04:11:05.396Z,28.80
2023-01-20T04:13:33.225Z,28.10
2023-01-20T04:16:01.949Z,31.30
2023-01-20T04:18:28.984Z,31.40
2023-01-20T04:21:01.724Z,30.50
2023-01-20T04:23:58.477Z,30.80
2023-01-20T04:26:25.314Z,32.50
2023-01-20T04:28:52.155Z,33.20
2023-01-20T04:31:30.129Z,31.50
2023-01-20T04:33:58.027Z,32.90
2023-01-20T04:36:25.075Z,32.70
2023-01-20T04:38:54.716Z,34.80
2023-01-20T04:41:22.002Z,33.60
2023-01-20T04:43:54.821Z,33.20
2023-01-20T04:46:21.719Z,31.70
2023-01-20T04:48:48.927Z,27.60
2023-01-20T04:51:34.287Z,27.10
2023-01-20T04:54:01.421Z,27.40
2023-01-20T04:56:30.326Z,30.90
2023-01-20T04:59:16.523Z,29.50
2023-01-20T05:01:43.401Z,32.50
2023-01-20T05:04:10.083Z,31.40
2023-01-20T05:06:37.264Z,34.80
2023-01-20T05:09:04.095Z,41.50
2023-01-20T05:11:30.771Z,36.30
2023-01-20T05:13:57.679Z,32.80
2023-01-20T05:16:25.449Z,32.40
2023-01-20T05:18:53.569Z,39.60
2023-01-20T05:21:20.663Z,39.00
2023-01-20T05:23:47.332Z,36.40
2023-01-20T05:26:32.901Z,39.90
2023-01-20T05:28:59.838Z,34.90
2023-01-20T05:31:55.345Z,44.70
2023-01-20T05:34:22.748Z,46.30
2023-01-20T05:36:53.611Z,41.10
2023-01-20T05:39:21.299Z,38.20
2023-01-20T05:41:48.385Z,41.10
2023-01-20T05:44:15.698Z,38.00
2023-01-20T05:46:42.518Z,36.50
2023-01-20T05:49:11.769Z,38.50
2023-01-20T05:51:38.803Z,41.30
2023-01-20T05:54:05.655Z,41.20
2023-01-20T05:56:32.524Z,43.00
2023-01-20T05:58:59.596Z,40.00
2023-01-20T06:01:26.840Z,36.00
2023-01-20T06:03:53.965Z,37.10
2023-01-20T06:06:20.844Z,39.00
2023-01-20T06:08:49.245Z,39.40
2023-01-20T06:11:17.503Z,37.50
2023-01-20T06:13:47.704Z,35.00
2023-01-20T06:16:16.042Z,32.90
2023-01-20T06:18:43.162Z,31.90
2023-01-20T06:21:10.014Z,33.20
2023-01-20T06:23:36.952Z,34.30
2023-01-20T06:26:07.211Z,36.20
2023-01-20T06:28:34.222Z,34.00
2023-01-20T06:31:13.744Z,30.70
2023-01-20T06:33:41.107Z,33.40
2023-01-20T06:36:10.212Z,33.50
2023-01-20T06:38:37.152Z,33.80
2023-01-20T06:41:22.838Z,35.20
2023-01-20T06:43:50.807Z,33.90
2023-01-20T06:46:36.167Z,32.80
2023-01-20T06:49:03.435Z,32.10
2023-01-20T06:51:32.978Z,34.10
2023-01-20T06:54:01.859Z,34.20
2023-01-20T06:56:28.815Z,32.60
2023-01-20T06:58:55.511Z,36.30
2023-01-20T07:01:25.817Z,32.20
2023-01-20T07:03:53.393Z,35.50
2023-01-20T07:06:27.835Z,34.30
2023-01-20T07:08:56.641Z,33.40
2023-01-20T07:11:24.922Z,36.30
2023-01-20T07:13:51.833Z,38.20
2023-01-20T07:16:18.605Z,37.80
2023-01-20T07:18:51.467Z,37.10
2023-01-20T07:21:18.952Z,33.60
2023-01-20T07:23:46.571Z,37.40
2023-01-20T07:26:15.986Z,34.00
2023-01-20T07:28:42.907Z,39.70
2023-01-20T07:31:18.837Z,35.00
2023-01-20T07:33:46.314Z,42.10
2023-01-20T07:36:14.916Z,41.30
2023-01-20T07:38:42.680Z,43.90
2023-01-20T07:41:15.366Z,39.40
2023-01-20T07:43:43.465Z,37.00
2023-01-20T07:46:10.988Z,41.70
2023-01-20T07:48:38.583Z,41.30
2023-01-20T07:51:11.710Z,44.60
2023-01-20T07:53:47.291Z,35.40
2023-01-20T07:56:16.802Z,36.00
2023-01-20T07:58:47.056Z,35.00
2023-01-20T08:01:19.101Z,35.10
2023-01-20T08:04:05.167Z,36.90
2023-01-20T08:06:32.221Z,33.10
2023-01-20T08:09:00.919Z,36.90
2023-01-20T08:11:28.541Z,36.30
2023-01-20T08:13:55.650Z,35.30
2023-01-20T08:16:22.828Z,35.40
2023-01-20T08:18:53.284Z,39.90
2023-01-20T08:21:29.998Z,35.90
2023-01-20T08:23:58.956Z,39.00
2023-01-20T08:26:47.972Z,36.70
2023-01-20T08:29:14.624Z,39.60
2023-01-20T08:31:41.975Z,36.50
2023-01-20T08:34:09.295Z,41.20
2023-01-20T08:36:56.889Z,35.20
2023-01-20T08:39:24.244Z,33.40
2023-01-20T08:41:51.075Z,32.50
2023-01-20T08:44:17.784Z,32.40
2023-01-20T08:46:45.080Z,36.40
2023-01-20T08:49:14.816Z,36.10
2023-01-20T08:51:44.101Z,33.50
2023-01-20T08:54:11.545Z,34.90
2023-01-20T08:56:38.388Z,36.50
2023-01-20T08:59:05.240Z,38.30
2023-01-20T09:01:36.050Z,37.90
2023-01-20T09:04:06.444Z,35.50
2023-01-20T09:06:43.914Z,40.40
2023-01-20T09:09:11.848Z,41.90
2023-01-20T09:11:39.933Z,43.90
2023-01-20T09:14:07.176Z,40.60
2023-01-20T09:16:34.035Z,41.00
2023-01-20T09:19:02.677Z,45.80
2023-01-20T09:21:29.583Z,42.70
2023-01-20T09:23:56.403Z,45.60
2023-01-20T09:26:41.727Z,44.90
2023-01-20T09:29:13.890Z,40.40
2023-01-20T09:31:44.696Z,41.60
2023-01-20T09:34:18.320Z,37.80
2023-01-20T09:36:45.274Z,39.50
2023-01-20T09:39:31.613Z,42.70
2023-01-20T09:42:40.886Z,41.90
2023-01-20T09:45:34.219Z,39.10
2023-01-20T09:48:40.479Z,46.60
2023-01-20T09:51:35.666Z,49.70
2023-01-20T09:54:16.401Z,43.00
2023-01-20T09:56:47.749Z,45.10
2023-01-20T09:59:17.963Z,40.70
2023-01-20T10:01:49.569Z,43.10
2023-01-20T10:04:23.347Z,43.20
2023-01-20T10:06:54.152Z,40.20
2023-01-20T10:09:33.784Z,42.60
2023-01-20T10:12:21.797Z,43.30
2023-01-20T10:14:57.760Z,44.50
2023-01-20T10:17:31.832Z,45.30
2023-01-20T10:20:32.764Z,47.70
2023-01-20T10:23:34.382Z,47.50
2023-01-20T10:26:38.087Z,49.50
2023-01-20T10:29:10.952Z,54.90
2023-01-20T10:31:46.603Z,44.00
2023-01-20T10:34:18.787Z,44.70
2023-01-20T10:39:42.714Z,41.60
2023-01-20T10:42:15.643Z,44.30
2023-01-20T10:44:43.400Z,45.80
2023-01-20T10:47:31.019Z,44.50
2023-01-20T10:50:03.826Z,42.60
2023-01-20T10:53:01.480Z,46.50
2023-01-20T10:55:52.920Z,45.70
2023-01-20T10:58:27.109Z,45.20
2023-01-20T11:00:54.724Z,43.20
2023-01-20T11:03:22.769Z,44.90
2023-01-20T11:05:51.669Z,40.10
2023-01-20T11:08:29.018Z,46.80
2023-01-20T11:11:09.091Z,37.20
2023-01-20T11:13:35.846Z,36.90
2023-01-20T11:16:12.341Z,35.70
2023-01-20T11:18:39.133Z,38.90
2023-01-20T11:21:08.885Z,37.70
2023-01-20T11:23:39.986Z,36.70
2023-01-20T11:26:36.221Z,39.20
2023-01-20T11:29:23.144Z,42.30
2023-01-20T11:31:59.956Z,41.70
2023-01-20T11:34:32.326Z,39.30
2023-01-20T11:37:04.995Z,42.70
2023-01-20T11:39:35.303Z,38.50
2023-01-20T11:42:30.383Z,43.90
2023-01-20T11:45:15.279Z,45.30
2023-01-20T11:48:15.864Z,48.50
2023-01-20T11:50:49.640Z,46.70
2023-01-20T11:53:19.360Z,49.20
2023-01-20T11:56:18.091Z,46.80
2023-01-20T11:59:03.729Z,47.90
2023-01-20T12:01:49.941Z,49.20
2023-01-20T12:04:22.691Z,51.20
2023-01-20T12:07:12.751Z,46.80
2023-01-20T12:10:11.169Z,46.80
2023-01-20T12:12:45.284Z,45.40
2023-01-20T12:15:18.884Z,44.80
2023-01-20T12:17:48.581Z,44.40
2023-01-20T12:20:55.059Z,46.90
2023-01-20T12:23:45.049Z,44.70
2023-01-20T12:26:17.683Z,46.50
2023-01-20T12:28:50.418Z,47.80
2023-01-20T12:31:19.602Z,51.50
2023-01-20T12:33:54.906Z,47.30
2023-01-20T12:36:43.379Z,46.30
2023-01-20T12:39:32.626Z,48.90
2023-01-20T12:42:05.259Z,48.80
2023-01-20T12:44:45.651Z,52.40
2023-01-20T12:47:44.046Z,50.50
2023-01-20T12:50:26.636Z,45.70
2023-01-20T12:56:07.227Z,71.50
2023-01-20T12:58:45.504Z,44.30
2023-01-20T13:01:37.506Z,48.80
2023-01-20T13:04:22.828Z,44.30
2023-01-20T13:06:57.166Z,45.70
2023-01-20T13:10:10.650Z,47.00
2023-01-20T13:12:47.651Z,48.50
2023-01-20T13:15:27.872Z,46.50
2023-01-20T13:18:01.021Z,43.20
2023-01-20T13:20:30.343Z,43.10
2023-01-20T13:23:05.060Z,47.00
2023-01-20T13:25:33.796Z,49.70
2023-01-20T13:28:22.914Z,46.30
2023-01-20T13:30:53.450Z,45.70
2023-01-20T13:33:40.818Z,43.50
2023-01-20T13:36:20.808Z,43.30
2023-01-20T13:38:50.418Z,48.00
2023-01-20T13:41:52.384Z,44.30
2023-01-20T13:44:45.444Z,44.60
2023-01-20T13:47:52.404Z,40.90
2023-01-20T13:50:24.003Z,48.00
2023-01-20T13:52:53.565Z,43.70
2023-01-20T13:55:47.730Z,43.20
2023-01-20T13:58:21.366Z,45.80
2023-01-20T14:01:14.578Z,46.30
2023-01-20T14:03:42.413Z,50.00
2023-01-20T14:06:10.631Z,47.60
2023-01-20T14:08:47.688Z,49.40
2023-01-20T14:11:22.266Z,51.90
2023-01-20T14:14:19.108Z,52.00
2023-01-20T14:16:48.815Z,52.00
2023-01-20T14:19:15.405Z,54.30
2023-01-20T14:21:43.950Z,50.80
2023-01-20T14:24:35.306Z,50.70
2023-01-20T14:27:13.836Z,51.70
2023-01-20T14:29:40.919Z,48.60
2023-01-20T14:32:22.155Z,46.10
2023-01-20T14:34:50.655Z,51.20
2023-01-20T14:37:33.865Z,49.60
2023-01-20T14:40:25.111Z,50.00
2023-01-20T14:43:19.958Z,52.90
2023-01-20T14:45:51.071Z,51.10
2023-01-20T14:48:33.371Z,49.80
2023-01-20T14:51:21.598Z,46.30
2023-01-20T14:54:49.046Z,53.60
2023-01-20T14:57:26.886Z,56.40
2023-01-20T15:00:15.544Z,57.30
2023-01-20T15:03:05.260Z,52.70
2023-01-20T15:05:40.826Z,62.80
2023-01-20T15:08:11.084Z,66.60
2023-01-20T15:10:38.714Z,57.10
2023-01-20T15:13:30.453Z,51.90
2023-01-20T15:16:12.237Z,56.70
2023-01-20T15:18:39.970Z,55.60
2023-01-20T15:21:26.641Z,58.70
2023-01-20T15:23:54.221Z,61.30
2023-01-20T15:26:28.544Z,71.70
2023-01-20T15:28:57.036Z,74.60
2023-01-20T15:31:24.414Z,68.00
2023-01-20T15:33:51.215Z,75.20
2023-01-20T15:36:23.979Z,71.80
2023-01-20T15:38:50.683Z,78.40
2023-01-20T15:41:18.038Z,75.80
2023-01-20T15:43:45.993Z,73.00
2023-01-20T15:46:14.794Z,67.00
2023-01-20T15:48:42.347Z,68.50
2023-01-20T15:51:15.546Z,78.80
2023-01-20T15:53:43.280Z,67.50
2023-01-20T15:56:25.851Z,72.30
2023-01-20T15:58:53.231Z,79.70
2023-01-20T16:01:24.320Z,106.70
2023-01-20T16:03:54.708Z,77.90
2023-01-20T16:06:33.073Z,86.00
2023-01-20T16:09:01.773Z,69.80
2023-01-20T16:11:28.825Z,82.60
2023-01-20T16:13:57.240Z,71.80
2023-01-20T16:16:43.030Z,63.50
2023-01-20T16:19:12.604Z,56.10
2023-01-20T16:21:39.438Z,61.30
2023-01-20T16:24:06.930Z,66.10
2023-01-20T16:26:34.710Z,69.70
2023-01-20T16:29:01.485Z,65.10
2023-01-20T16:31:47.163Z,64.60
2023-01-20T16:34:13.848Z,61.20
2023-01-20T16:36:40.514Z,63.00
2023-01-20T16:39:09.606Z,102.10
2023-01-20T16:41:36.624Z,83.90
2023-01-20T16:44:03.955Z,83.80
2023-01-20T16:48:21.393Z,71.10
2023-01-20T16:50:50.871Z,68.60
2023-01-20T16:53:19.672Z,76.00
2023-01-20T16:55:49.595Z,63.70
2023-01-20T16:58:17.651Z,58.00
2023-01-20T17:00:45.780Z,80.50
2023-01-20T17:03:13.949Z,70.60
2023-01-20T17:05:42.043Z,62.90
2023-01-20T17:08:10.152Z,59.40
2023-01-20T17:10:56.935Z,59.10
2023-01-20T17:13:25.154Z,60.30
2023-01-20T17:16:11.912Z,59.80
2023-01-20T17:18:46.738Z,56.70
2023-01-20T17:21:37.245Z,56.50
2023-01-20T17:24:06.686Z,56.90
2023-01-20T17:26:37.209Z,57.00
2023-01-20T17:29:06.978Z,58.90
2023-01-20T17:31:37.013Z,56.70
2023-01-20T17:34:11.574Z,57.40
2023-01-20T17:36:40.083Z,59.40
2023-01-20T17:39:10.506Z,61.20
2023-01-20T17:41:38.907Z,65.90
2023-01-20T17:44:07.204Z,62.20
2023-01-20T17:46:35.218Z,61.40
2023-01-20T17:49:07.868Z,62.70
2023-01-20T17:51:36.287Z,58.80
2023-01-20T17:54:04.448Z,60.80
2023-01-20T17:56:33.164Z,62.70
2023-01-20T17:59:01.284Z,60.70
2023-01-20T18:01:32.635Z,55.00
2023-01-20T18:04:01.745Z,64.50
2023-01-20T18:06:34.921Z,63.30
2023-01-20T18:09:05.745Z,68.60
2023-01-20T18:11:37.530Z,66.40
2023-01-20T18:14:06.988Z,62.90
2023-01-20T18:16:37.987Z,62.20
2023-01-20T18:19:06.333Z,63.50
2023-01-20T18:21:36.812Z,62.30
2023-01-20T18:24:10.254Z,59.70
2023-01-20T18:26:40.780Z,64.50
2023-01-20T18:29:17.041Z,65.00
2023-01-20T18:31:47.079Z,66.90
2023-01-20T18:34:16.177Z,68.40
2023-01-20T18:36:46.610Z,63.00
2023-01-20T18:39:33.554Z,67.60
2023-01-20T18:42:01.550Z,71.60
2023-01-20T18:44:29.667Z,98.90
2023-01-20T18:46:58.253Z,81.50
2023-01-20T18:49:26.482Z,71.30
2023-01-20T18:51:54.886Z,72.80
2023-01-20T18:54:42.175Z,69.00
2023-01-20T18:57:28.953Z,62.00
2023-01-20T18:59:57.768Z,64.60
2023-01-20T19:02:25.958Z,70.80
2023-01-20T19:04:54.451Z,66.90
2023-01-20T19:07:41.334Z,71.20
2023-01-20T19:10:09.939Z,72.70
2023-01-20T19:12:38.179Z,76.50
2023-01-20T19:15:07.247Z,73.30
2023-01-20T19:17:35.495Z,82.40
2023-01-20T19:20:04.862Z,99.60
2023-01-20T19:22:33.499Z,84.10
2023-01-20T19:25:02.010Z,67.50
2023-01-20T19:27:31.297Z,57.90
2023-01-20T19:30:18.575Z,64.90
2023-01-20T19:33:05.207Z,68.50
2023-01-20T19:35:34.204Z,78.90
2023-01-20T19:38:02.310Z,79.30
2023-01-20T19:40:30.526Z,80.40
2023-01-20T19:43:01.169Z,68.90
2023-01-20T19:45:44.783Z,66.60
2023-01-20T19:48:14.114Z,56.20
2023-01-20T19:50:42.378Z,56.10
2023-01-20T19:53:10.378Z,58.70
2023-01-20T19:55:42.768Z,93.40
2023-01-20T19:58:11.041Z,60.80
2023-01-20T20:00:39.256Z,92.10
2023-01-20T20:03:07.239Z,64.20
2023-01-20T20:05:38.906Z,55.80
2023-01-20T20:08:07.221Z,49.00
2023-01-20T20:10:35.641Z,53.90
2023-01-20T20:13:23.476Z,49.80
2023-01-20T20:16:00.796Z,50.40
2023-01-20T20:18:29.053Z,49.10
2023-01-20T20:20:57.305Z,45.00
2023-01-20T20:25:14.547Z,50.20
2023-01-20T20:27:43.151Z,55.50
2023-01-20T20:30:11.705Z,56.80
2023-01-20T20:32:39.917Z,61.00
2023-01-20T20:35:08.851Z,62.90
2023-01-20T20:37:38.265Z,70.70
2023-01-20T20:40:07.386Z,69.60
2023-01-20T20:42:35.773Z,69.40
2023-01-20T20:45:04.352Z,70.90
2023-01-20T20:47:33.591Z,68.50
2023-01-20T20:50:01.867Z,59.40
2023-01-20T20:52:30.681Z,60.60
2023-01-20T20:54:58.878Z,64.50
2023-01-20T20:57:27.254Z,67.20
2023-01-20T20:59:59.131Z,61.10
2023-01-20T21:04:55.717Z,66.80
2023-01-20T21:07:23.879Z,68.50
2023-01-20T21:09:52.505Z,56.70
2023-01-20T21:12:39.453Z,58.60
2023-01-20T21:15:08.702Z,56.80
2023-01-20T21:17:40.239Z,51.70
2023-01-20T21:20:09.519Z,53.90
2023-01-20T21:22:37.663Z,48.80
2023-01-20T21:25:06.328Z,47.80
2023-01-20T21:27:34.541Z,51.50
2023-01-20T21:30:02.587Z,54.70
2023-01-20T21:32:31.006Z,55.30
2023-01-20T21:35:02.171Z,53.00
2023-01-20T21:37:30.200Z,53.00
2023-01-20T21:39:58.275Z,61.00
2023-01-20T21:42:26.854Z,56.40
2023-01-20T21:44:54.863Z,62.60
2023-01-20T21:47:22.995Z,58.90
2023-01-20T21:50:29.922Z,59.50
2023-01-20T21:52:57.928Z,56.20
2023-01-20T21:55:25.931Z,55.70
2023-01-20T21:57:55.443Z,61.80
2023-01-20T22:00:23.539Z,68.00
2023-01-20T22:02:51.966Z,65.30
2023-01-20T22:05:20.249Z,72.70
2023-01-20T22:07:48.556Z,74.90
2023-01-20T22:10:17.506Z,67.40
2023-01-20T22:12:46.021Z,63.50
2023-01-20T22:15:14.166Z,64.50
2023-01-20T22:17:42.639Z,60.40
2023-01-20T22:20:11.639Z,67.00
2023-01-20T22:22:39.687Z,67.20
2023-01-20T22:25:08.065Z,67.20
2023-01-20T22:27:36.372Z,72.80
2023-01-20T22:30:04.943Z,68.40
2023-01-20T22:32:33.013Z,69.30
2023-01-20T22:35:01.211Z,66.10
2023-01-20T22:37:31.654Z,66.00
2023-01-20T22:40:18.704Z,56.60
2023-01-20T22:42:46.740Z,60.60
2023-01-20T22:45:14.857Z,60.10
2023-01-20T22:47:42.973Z,53.20
2023-01-20T22:50:11.563Z,55.90
2023-01-20T22:52:39.600Z,45.50
2023-01-20T22:55:08.427Z,50.50
2023-01-20T22:57:36.593Z,45.90
2023-01-20T23:00:24.251Z,47.90
2023-01-20T23:02:52.415Z,41.20
2023-01-20T23:05:20.455Z,42.00
2023-01-20T23:07:48.911Z,41.20
2023-01-20T23:10:47.809Z,38.10
2023-01-20T23:13:17.788Z,35.30
2023-01-20T23:16:09.676Z,40.60
2023-01-20T23:18:38.527Z,35.30
2023-01-20T23:21:07.006Z,36.00
2023-01-20T23:23:35.487Z,33.70
2023-01-20T23:26:15.474Z,35.50
2023-01-20T23:28:45.454Z,35.60
2023-01-20T23:31:33.930Z,36.40
2023-01-20T23:34:02.300Z,36.90
2023-01-20T23:36:30.323Z,36.20
2023-01-20T23:38:58.721Z,36.90
2023-01-20T23:41:26.787Z,37.80
2023-01-20T23:43:54.777Z,41.70
2023-01-20T23:46:28.108Z,36.10
2023-01-20T23:48:56.359Z,35.30
2023-01-20T23:51:24.467Z,35.80
2023-01-20T23:53:52.692Z,39.80
2023-01-20T23:56:23.765Z,34.90
2023-01-20T23:58:55.199Z,35.00
